Time;durP1;ratioP1;P1;durP2;ratioP2;P2;SDS_P1;SDS_P2;PMS_P1;PMS_P2;Temp;Humidity;BMP_temperature;BMP_pressure;BME280_temperature;BME280_humidity;BME280_pressure;Samples;Min_cycle;Max_cycle;Signal;HPM_P1;HPM_P2
2021/04/08 00:14:50;;;;;;;0.10;0.10;;;;;;;;;;5128111;27;20395;-60
2021/04/08 00:17:16;;;;;;;0.20;0.20;;;;;;;;;;5120322;28;20081;-61
2021/04/08 00:19:42;;;;;;;0.30;0.30;;;;;;;;;;5109277;28;20037;-60
2021/04/08 00:22:08;;;;;;;0.20;0.20;;;;;;;;;;5108932;28;20016;-60
2021/04/08 00:24:34;;;;;;;0.20;0.20;;;;;;;;;;5113423;28;20042;-60
2021/04/08 00:27:00;;;;;;;0.22;0.22;;;;;;;;;;5109430;28;20031;-60
2021/04/08 00:29:26;;;;;;;0.20;0.20;;;;;;;;;;5111202;28;20042;-60
2021/04/08 00:31:52;;;;;;;0.28;0.28;;;;;;;;;;5110723;28;20433;-60
2021/04/08 00:34:19;;;;;;;1.20;1.20;;;;;;;;;;5106322;28;20111;-60
2021/04/08 00:36:45;;;;;;;0.40;0.40;;;;;;;;;;5113240;28;20024;-60
2021/04/08 00:39:12;;;;;;;0.30;0.30;;;;;;;;;;5110815;28;20024;-60
2021/04/08 00:41:38;;;;;;;0.20;0.20;;;;;;;;;;5110950;28;20477;-60
2021/04/08 00:44:05;;;;;;;0.20;0.20;;;;;;;;;;5110381;28;20485;-60
2021/04/08 00:46:31;;;;;;;0.20;0.20;;;;;;;;;;5107825;28;20022;-60
2021/04/08 00:48:57;;;;;;;0.20;0.20;;;;;;;;;;5110104;28;20043;-60
2021/04/08 00:51:25;;;;;;;0.20;0.20;;;;;;;;;;5110758;28;20028;-60
2021/04/08 00:53:52;;;;;;;0.20;0.20;;;;;;;;;;5110700;28;20085;-60
2021/04/08 00:56:19;;;;;;;0.20;0.20;;;;;;;;;;5110628;28;20118;-60
2021/04/08 00:58:46;;;;;;;0.20;0.20;;;;;;;;;;5109761;28;20055;-60
2021/04/08 01:01:12;;;;;;;0.20;0.20;;;;;;;;;;5107059;28;20028;-60
2021/04/08 01:03:38;;;;;;;0.10;0.10;;;;;;;;;;5112263;28;20035;-60
2021/04/08 01:06:04;;;;;;;0.10;0.10;;;;;;;;;;5110515;28;20028;-60
2021/04/08 01:08:31;;;;;;;0.20;0.20;;;;;;;;;;5110494;28;20028;-60
2021/04/08 01:10:57;;;;;;;0.20;0.20;;;;;;;;;;5109964;28;20012;-60
2021/04/08 01:13:25;;;;;;;0.20;0.20;;;;;;;;;;5105204;28;20048;-60
2021/04/08 01:15:51;;;;;;;0.20;0.20;;;;;;;;;;5093118;28;20055;-60
2021/04/08 01:18:26;;;;;;;0.20;0.20;;;;;;;;;;5093452;28;20032;-60
2021/04/08 01:20:52;;;;;;;;;;;;;;;;;;5093900;28;20040;-60
2021/04/08 01:23:27;;;;;;;0.20;0.20;;;;;;;;;;5093509;28;19959;-60
2021/04/08 01:26:00;;;;;;;0.20;0.20;;;;;;;;;;5093490;28;20491;-60
2021/04/08 01:28:26;;;;;;;0.20;0.20;;;;;;;;;;5093964;28;20024;-60
2021/04/08 01:30:54;;;;;;;0.20;0.20;;;;;;;;;;5093967;28;20024;-60
2021/04/08 01:33:30;;;;;;;0.20;0.20;;;;;;;;;;5092912;28;20481;-60
2021/04/08 01:35:58;;;;;;;0.20;0.20;;;;;;;;;;5093616;28;20073;-60
2021/04/08 01:38:29;;;;;;;0.20;0.20;;;;;;;;;;5093140;28;20055;-60
2021/04/08 01:40:56;;;;;;;0.20;0.20;;;;;;;;;;5093040;28;20508;-60
2021/04/08 01:43:24;;;;;;;0.20;0.20;;;;;;;;;;5093538;28;20028;-60
2021/04/08 01:45:51;;;;;;;0.20;0.20;;;;;;;;;;5091836;28;20032;-60
2021/04/08 01:48:17;;;;;;;0.20;0.20;;;;;;;;;;5092919;28;20451;-60
2021/04/08 01:50:44;;;;;;;0.20;0.20;;;;;;;;;;5092925;28;20032;-60
2021/04/08 01:53:12;;;;;;;0.20;0.20;;;;;;;;;;5093175;28;20036;-60
2021/04/08 01:55:38;;;;;;;0.20;0.20;;;;;;;;;;5092833;28;20019;-60
2021/04/08 01:58:05;;;;;;;0.85;0.68;;;;;;;;;;5093035;28;20024;-60
2021/04/08 02:00:31;;;;;;;0.20;0.20;;;;;;;;;;5093212;28;20024;-60
2021/04/08 02:02:58;;;;;;;0.20;0.20;;;;;;;;;;5092697;28;20073;-60
2021/04/08 02:05:26;;;;;;;0.20;0.20;;;;;;;;;;5092770;28;20110;-60
2021/04/08 02:07:53;;;;;;;0.20;0.20;;;;;;;;;;5092761;28;20024;-60
2021/04/08 02:10:20;;;;;;;0.30;0.30;;;;;;;;;;5076960;28;20028;-60
2021/04/08 02:12:47;;;;;;;0.20;0.20;;;;;;;;;;5088898;28;20032;-60
2021/04/08 02:15:14;;;;;;;0.20;0.20;;;;;;;;;;5092174;28;20508;-60
2021/04/08 02:17:41;;;;;;;0.20;0.20;;;;;;;;;;5093183;28;20518;-60
2021/04/08 02:20:13;;;;;;;0.20;0.20;;;;;;;;;;5091905;28;20039;-60
2021/04/08 02:22:40;;;;;;;0.15;0.15;;;;;;;;;;5092460;28;20394;-60
2021/04/08 02:25:08;;;;;;;0.20;0.20;;;;;;;;;;5091202;28;20024;-60
2021/04/08 02:27:35;;;;;;;0.17;0.17;;;;;;;;;;5092235;28;20165;-60
2021/04/08 02:30:02;;;;;;;0.20;0.20;;;;;;;;;;5091342;28;20016;-60
2021/04/08 02:32:28;;;;;;;0.25;0.25;;;;;;;;;;5091367;28;20028;-60
2021/04/08 02:34:54;;;;;;;0.35;0.35;;;;;;;;;;5092309;28;20102;-60
2021/04/08 02:37:20;;;;;;;0.20;0.20;;;;;;;;;;5092478;28;20024;-60
2021/04/08 02:39:46;;;;;;;0.30;0.30;;;;;;;;;;5088724;28;20024;-60
2021/04/08 02:42:12;;;;;;;0.30;0.30;;;;;;;;;;5092062;28;20020;-60
2021/04/08 02:44:38;;;;;;;0.20;0.20;;;;;;;;;;5091742;28;20089;-60
2021/04/08 02:47:04;;;;;;;0.20;0.20;;;;;;;;;;5091761;28;20027;-60
2021/04/08 02:49:32;;;;;;;0.30;0.30;;;;;;;;;;5091002;28;20020;-60
2021/04/08 02:52:03;;;;;;;0.20;0.20;;;;;;;;;;5092114;28;20020;-60
2021/04/08 02:54:38;;;;;;;0.20;0.20;;;;;;;;;;5090322;28;20401;-60
2021/04/08 02:57:04;;;;;;;0.30;0.30;;;;;;;;;;5091859;28;20032;-60
2021/04/08 02:59:33;;;;;;;0.30;0.30;;;;;;;;;;5091492;28;20055;-60
2021/04/08 03:02:03;;;;;;;0.20;0.20;;;;;;;;;;5091985;28;20478;-60
2021/04/08 03:04:31;;;;;;;0.20;0.20;;;;;;;;;;5092475;28;20032;-60
2021/04/08 03:06:57;;;;;;;0.30;0.30;;;;;;;;;;5092209;28;20099;-60
2021/04/08 03:09:32;;;;;;;0.30;0.30;;;;;;;;;;5091750;28;20043;-60
2021/04/08 03:12:00;;;;;;;0.30;0.30;;;;;;;;;;5091556;28;20036;-60
2021/04/08 03:14:27;;;;;;;0.30;0.30;;;;;;;;;;5089421;28;20136;-60
2021/04/08 03:16:54;;;;;;;0.28;0.28;;;;;;;;;;5091457;28;20031;-60
2021/04/08 03:19:23;;;;;;;0.20;0.20;;;;;;;;;;5091275;28;20024;-60
2021/04/08 03:21:50;;;;;;;0.25;0.25;;;;;;;;;;5088146;28;20050;-60
2021/04/08 03:24:17;;;;;;;0.28;0.28;;;;;;;;;;5090939;28;20044;-60
2021/04/08 03:26:44;;;;;;;0.30;0.30;;;;;;;;;;5090553;28;20032;-60
2021/04/08 03:29:12;;;;;;;0.28;0.28;;;;;;;;;;5089156;28;20107;-60
2021/04/08 03:31:40;;;;;;;0.20;0.20;;;;;;;;;;5090504;28;20034;-60
2021/04/08 03:34:07;;;;;;;0.30;0.30;;;;;;;;;;5090759;28;20024;-60
2021/04/08 03:36:33;;;;;;;0.22;0.22;;;;;;;;;;5091064;28;20048;-60
2021/04/08 03:38:59;;;;;;;0.20;0.20;;;;;;;;;;5090291;28;20031;-60
2021/04/08 03:41:26;;;;;;;0.20;0.20;;;;;;;;;;5089213;28;20035;-60
2021/04/08 03:43:52;;;;;;;0.30;0.30;;;;;;;;;;5089842;28;20042;-60
2021/04/08 03:46:19;;;;;;;0.30;0.30;;;;;;;;;;5074458;28;20032;-60
2021/04/08 03:48:47;;;;;;;0.30;0.30;;;;;;;;;;5090966;28;20103;-60
2021/04/08 03:51:14;;;;;;;0.22;0.22;;;;;;;;;;5090327;28;20039;-60
2021/04/08 03:53:40;;;;;;;0.20;0.20;;;;;;;;;;5090252;28;20102;-60
2021/04/08 03:56:08;;;;;;;0.22;0.22;;;;;;;;;;5090256;28;20028;-60
2021/04/08 03:58:34;;;;;;;0.30;0.30;;;;;;;;;;5089970;28;20028;-59
2021/04/08 04:01:01;;;;;;;0.30;0.30;;;;;;;;;;5090414;28;20025;-60
2021/04/08 04:03:28;;;;;;;0.30;0.30;;;;;;;;;;5089376;28;20063;-60
2021/04/08 04:05:54;;;;;;;0.30;0.30;;;;;;;;;;5090234;28;20036;-60
2021/04/08 04:08:20;;;;;;;0.28;0.28;;;;;;;;;;5090321;28;20420;-60
2021/04/08 04:10:47;;;;;;;0.30;0.30;;;;;;;;;;5089821;28;20024;-60
2021/04/08 04:13:13;;;;;;;0.30;0.30;;;;;;;;;;5090132;28;20538;-59
2021/04/08 04:15:40;;;;;;;0.30;0.30;;;;;;;;;;5090745;28;20042;-60
2021/04/08 04:18:07;;;;;;;0.30;0.30;;;;;;;;;;5085517;28;20458;-59
2021/04/08 04:20:34;;;;;;;0.30;0.30;;;;;;;;;;5087218;28;20103;-59
2021/04/08 04:23:00;;;;;;;0.40;0.40;;;;;;;;;;5089466;28;20040;-59
2021/04/08 04:25:26;;;;;;;0.30;0.30;;;;;;;;;;5089760;28;20467;-60
2021/04/08 04:27:52;;;;;;;0.30;0.30;;;;;;;;;;5090430;28;20081;-60
2021/04/08 04:30:18;;;;;;;0.32;0.32;;;;;;;;;;5089890;28;20077;-59
2021/04/08 04:32:45;;;;;;;0.35;0.35;;;;;;;;;;5089988;28;20110;-60
2021/04/08 04:35:11;;;;;;;0.30;0.30;;;;;;;;;;5089749;28;20031;-60
2021/04/08 04:37:37;;;;;;;0.30;0.30;;;;;;;;;;5090146;28;20016;-60
2021/04/08 04:40:06;;;;;;;0.30;0.30;;;;;;;;;;5089911;28;20317;-60
2021/04/08 04:42:34;;;;;;;0.40;0.40;;;;;;;;;;5088414;28;20036;-59
2021/04/08 04:45:00;;;;;;;0.30;0.30;;;;;;;;;;5089685;28;20115;-60
2021/04/08 04:47:26;;;;;;;0.30;0.30;;;;;;;;;;5089366;28;20028;-60
2021/04/08 04:49:52;;;;;;;0.70;0.70;;;;;;;;;;5091882;28;20105;-60
2021/04/08 04:52:19;;;;;;;0.30;0.30;;;;;;;;;;5089232;28;20028;-60
2021/04/08 04:54:45;;;;;;;0.30;0.30;;;;;;;;;;5093950;28;20047;-60
2021/04/08 04:57:11;;;;;;;0.30;0.30;;;;;;;;;;5093623;28;20059;-60
2021/04/08 04:59:37;;;;;;;0.30;0.30;;;;;;;;;;5093608;28;20028;-59
2021/04/08 05:02:03;;;;;;;0.35;0.35;;;;;;;;;;5091903;28;20404;-60
2021/04/08 05:04:30;;;;;;;0.40;0.40;;;;;;;;;;5093467;28;20401;-60
2021/04/08 05:06:56;;;;;;;0.30;0.30;;;;;;;;;;5090639;28;20020;-60
2021/04/08 05:09:22;;;;;;;0.40;0.40;;;;;;;;;;5086510;28;20032;-60
2021/04/08 05:11:48;;;;;;;0.20;0.20;;;;;;;;;;5086808;28;20405;-59
2021/04/08 05:14:14;;;;;;;0.30;0.30;;;;;;;;;;5088082;28;20044;-60
2021/04/08 05:16:41;;;;;;;0.30;0.30;;;;;;;;;;5082056;28;20032;-60
2021/04/08 05:19:07;;;;;;;0.32;0.32;;;;;;;;;;5092209;28;20055;-60
2021/04/08 05:21:33;;;;;;;0.30;0.30;;;;;;;;;;5092196;28;20036;-59
2021/04/08 05:23:59;;;;;;;0.30;0.30;;;;;;;;;;5090043;28;20096;-59
2021/04/08 05:26:25;;;;;;;0.30;0.30;;;;;;;;;;5090153;28;20028;-59
2021/04/08 05:28:52;;;;;;;0.22;0.22;;;;;;;;;;5090543;28;20028;-59
2021/04/08 05:31:18;;;;;;;0.40;0.40;;;;;;;;;;5074470;28;20432;-59
2021/04/08 05:33:44;;;;;;;0.25;0.25;;;;;;;;;;5092927;28;20032;-59
2021/04/08 05:36:10;;;;;;;0.20;0.20;;;;;;;;;;5089786;28;20048;-59
2021/04/08 05:38:36;;;;;;;0.30;0.30;;;;;;;;;;5089513;28;20028;-59
2021/04/08 05:41:02;;;;;;;0.40;0.40;;;;;;;;;;5089654;28;20016;-59
2021/04/08 05:43:28;;;;;;;0.32;0.32;;;;;;;;;;5090060;28;20040;-60
2021/04/08 05:45:54;;;;;;;0.40;0.40;;;;;;;;;;5093318;28;20474;-59
2021/04/08 05:48:20;;;;;;;1.65;1.60;;;;;;;;;;5091127;28;20035;-59
2021/04/08 05:50:47;;;;;;;0.30;0.30;;;;;;;;;;5090176;28;20472;-59
2021/04/08 05:53:13;;;;;;;0.30;0.30;;;;;;;;;;5088595;28;20505;-60
2021/04/08 05:55:39;;;;;;;0.30;0.30;;;;;;;;;;5090500;28;20066;-59
2021/04/08 05:58:05;;;;;;;0.30;0.30;;;;;;;;;;5091852;28;20448;-59
2021/04/08 06:00:31;;;;;;;0.30;0.30;;;;;;;;;;5090663;28;20032;-59
2021/04/08 06:02:57;;;;;;;0.30;0.30;;;;;;;;;;5089356;28;20100;-59
2021/04/08 06:05:23;;;;;;;0.38;0.38;;;;;;;;;;5089485;28;20024;-60
2021/04/08 06:07:50;;;;;;;0.20;0.20;;;;;;;;;;5089005;28;20024;-59
2021/04/08 06:10:16;;;;;;;0.30;0.30;;;;;;;;;;5088884;28;20028;-59
2021/04/08 06:12:43;;;;;;;0.30;0.30;;;;;;;;;;5092526;28;20107;-59
2021/04/08 06:15:10;;;;;;;0.20;0.20;;;;;;;;;;5089385;28;20036;-59
2021/04/08 06:17:36;;;;;;;0.20;0.20;;;;;;;;;;5089415;28;20034;-59
2021/04/08 06:20:03;;;;;;;0.30;0.30;;;;;;;;;;5086590;28;20450;-59
2021/04/08 06:22:30;;;;;;;0.30;0.30;;;;;;;;;;5080327;28;20093;-60
2021/04/08 06:24:56;;;;;;;0.20;0.20;;;;;;;;;;5079997;28;20034;-59
2021/04/08 06:27:22;;;;;;;0.30;0.30;;;;;;;;;;5092564;28;20030;-61
2021/04/08 06:29:48;;;;;;;0.20;0.20;;;;;;;;;;5078441;28;20743;-66
2021/04/08 06:32:14;;;;;;;0.30;0.30;;;;;;;;;;5080932;28;20435;-66
2021/04/08 06:34:40;;;;;;;0.30;0.30;;;;;;;;;;5088534;28;20482;-66
2021/04/08 06:37:06;;;;;;;0.30;0.30;;;;;;;;;;5085792;28;20480;-66
2021/04/08 06:39:35;;;;;;;0.40;0.40;;;;;;;;;;5090255;28;20516;-65
2021/04/08 06:42:01;;;;;;;0.30;0.30;;;;;;;;;;5079382;28;20450;-74
2021/04/08 06:44:28;;;;;;;0.40;0.40;;;;;;;;;;5077555;28;20512;-66
2021/04/08 06:46:57;;;;;;;0.20;0.20;;;;;;;;;;5076938;28;20635;-67
2021/04/08 06:49:28;;;;;;;0.30;0.30;;;;;;;;;;5088035;28;20050;-65
2021/04/08 06:51:56;;;;;;;0.20;0.20;;;;;;;;;;5090608;28;20060;-67
2021/04/08 06:54:22;;;;;;;0.30;0.30;;;;;;;;;;5079049;28;20464;-61
2021/04/08 06:56:48;;;;;;;0.20;0.20;;;;;;;;;;5085650;28;20032;-69
2021/04/08 06:59:16;;;;;;;0.25;0.25;;;;;;;;;;5089052;28;20563;-63
2021/04/08 07:01:43;;;;;;;0.30;0.30;;;;;;;;;;5088417;28;20027;-69
2021/04/08 07:04:13;;;;;;;0.20;0.20;;;;;;;;;;5089799;28;20040;-71
2021/04/08 07:06:39;;;;;;;0.25;0.25;;;;;;;;;;5090478;28;20526;-70
2021/04/08 07:09:08;;;;;;;0.20;0.20;;;;;;;;;;5088154;28;20048;-67
2021/04/08 07:11:35;;;;;;;0.20;0.20;;;;;;;;;;5088202;28;20016;-67
2021/04/08 07:14:02;;;;;;;0.30;0.30;;;;;;;;;;5088744;28;20044;-66
2021/04/08 07:16:30;;;;;;;0.30;0.30;;;;;;;;;;5090125;28;20056;-67
2021/04/08 07:18:56;;;;;;;0.38;0.38;;;;;;;;;;5083417;28;20020;-67
2021/04/08 07:21:22;;;;;;;0.30;0.30;;;;;;;;;;5088215;28;20027;-67
2021/04/08 07:24:07;;;;;;;0.30;0.30;;;;;;;;;;5086783;28;20474;-67
2021/04/08 07:26:49;;;;;;;0.30;0.30;;;;;;;;;;5088660;28;20028;-68
2021/04/08 07:29:15;;;;;;;0.20;0.20;;;;;;;;;;5083154;28;20481;-68
2021/04/08 07:31:42;;;;;;;0.20;0.20;;;;;;;;;;5089410;28;20035;-67
2021/04/08 07:34:08;;;;;;;0.20;0.20;;;;;;;;;;5085835;28;20037;-68
2021/04/08 07:36:35;;;;;;;0.20;0.20;;;;;;;;;;5086102;28;20043;-67
2021/04/08 07:39:03;;;;;;;0.25;0.25;;;;;;;;;;5084221;28;20028;-67
2021/04/08 07:41:31;;;;;;;0.30;0.30;;;;;;;;;;5085254;28;20135;-67
2021/04/08 07:44:04;;;;;;;0.30;0.30;;;;;;;;;;5087584;28;20028;-65
2021/04/08 07:46:35;;;;;;;0.30;0.30;;;;;;;;;;5082112;28;20021;-68
2021/04/08 07:49:01;;;;;;;0.20;0.20;;;;;;;;;;5087605;28;20032;-66
2021/04/08 07:51:28;;;;;;;0.30;0.30;;;;;;;;;;5086484;28;20028;-67
2021/04/08 07:54:11;;;;;;;0.22;0.22;;;;;;;;;;5084778;28;20060;-67
2021/04/08 07:56:37;;;;;;;0.20;0.20;;;;;;;;;;5084155;28;20032;-64
2021/04/08 07:59:18;;;;;;;0.40;0.40;;;;;;;;;;5085380;28;20020;-68
2021/04/08 08:01:45;;;;;;;0.20;0.20;;;;;;;;;;5084221;28;20032;-67
2021/04/08 08:04:25;;;;;;;0.20;0.20;;;;;;;;;;5073114;28;20069;-68
2021/04/08 08:06:52;;;;;;;0.32;0.32;;;;;;;;;;5071744;28;20035;-65
2021/04/08 08:09:36;;;;;;;0.25;0.25;;;;;;;;;;5085471;28;20020;-66
2021/04/08 08:12:09;;;;;;;0.30;0.30;;;;;;;;;;5084862;28;20038;-67
2021/04/08 08:14:36;;;;;;;0.40;0.40;;;;;;;;;;5080001;28;20438;-67
2021/04/08 08:17:13;;;;;;;0.20;0.20;;;;;;;;;;5083475;28;20039;-66
2021/04/08 08:19:42;;;;;;;0.20;0.20;;;;;;;;;;5079408;28;20055;-67
2021/04/08 08:22:08;;;;;;;0.13;0.13;;;;;;;;;;5083696;28;20107;-67
2021/04/08 08:24:35;;;;;;;0.20;0.20;;;;;;;;;;5086426;28;20040;-67
2021/04/08 08:27:01;;;;;;;0.20;0.20;;;;;;;;;;5085016;28;20055;-67
2021/04/08 08:29:29;;;;;;;0.20;0.20;;;;;;;;;;5081811;28;20033;-67
2021/04/08 08:31:58;;;;;;;0.20;0.20;;;;;;;;;;5084572;28;20047;-67
2021/04/08 08:34:25;;;;;;;0.20;0.20;;;;;;;;;;5081410;28;20020;-69
2021/04/08 08:36:58;;;;;;;0.10;0.10;;;;;;;;;;5090098;28;20024;-66
2021/04/08 08:39:25;;;;;;;0.13;0.13;;;;;;;;;;5083514;28;20107;-68
2021/04/08 08:41:52;;;;;;;0.15;0.15;;;;;;;;;;5080306;28;20098;-67
2021/04/08 08:44:18;;;;;;;0.20;0.20;;;;;;;;;;5082842;28;20560;-67
2021/04/08 08:46:44;;;;;;;0.10;0.10;;;;;;;;;;5085933;28;20031;-67
2021/04/08 08:49:12;;;;;;;0.30;0.30;;;;;;;;;;5085412;28;20040;-67
2021/04/08 08:51:38;;;;;;;0.30;0.30;;;;;;;;;;5087107;28;20020;-67
2021/04/08 08:54:05;;;;;;;0.30;0.30;;;;;;;;;;5089684;28;20032;-67
2021/04/08 08:56:33;;;;;;;0.10;0.10;;;;;;;;;;5086490;28;20065;-67
2021/04/08 08:58:59;;;;;;;0.20;0.20;;;;;;;;;;5080904;28;20024;-67
2021/04/08 09:01:25;;;;;;;0.20;0.20;;;;;;;;;;5076851;28;20028;-68
2021/04/08 09:03:51;;;;;;;0.45;0.45;;;;;;;;;;5084739;28;20107;-67
2021/04/08 09:06:22;;;;;;;0.10;0.10;;;;;;;;;;5085474;28;20119;-69
2021/04/08 09:08:52;;;;;;;0.30;0.30;;;;;;;;;;5083525;28;20480;-69
2021/04/08 09:11:25;;;;;;;0.30;0.30;;;;;;;;;;5080322;28;20032;-68
2021/04/08 09:13:52;;;;;;;0.20;0.20;;;;;;;;;;5085795;28;20118;-69
2021/04/08 09:16:18;;;;;;;0.10;0.10;;;;;;;;;;5085072;28;20063;-69
2021/04/08 09:18:57;;;;;;;0.17;0.17;;;;;;;;;;5086423;28;20093;-69
2021/04/08 09:21:24;;;;;;;0.10;0.10;;;;;;;;;;5092590;28;20055;-68
2021/04/08 09:24:06;;;;;;;0.10;0.10;;;;;;;;;;5086362;28;20083;-69
2021/04/08 09:26:35;;;;;;;0.10;0.10;;;;;;;;;;5089810;28;20020;-70
2021/04/08 09:29:03;;;;;;;1.02;1.02;;;;;;;;;;5090522;28;20028;-68
2021/04/08 09:31:30;;;;;;;0.20;0.20;;;;;;;;;;5084027;28;20028;-69
2021/04/08 09:33:57;;;;;;;0.20;0.20;;;;;;;;;;5090387;28;20370;-70
2021/04/08 09:36:24;;;;;;;0.10;0.10;;;;;;;;;;5082906;28;20028;-69
2021/04/08 09:38:56;;;;;;;0.30;0.30;;;;;;;;;;5084317;28;20405;-69
2021/04/08 09:41:58;;;;;;;0.10;0.10;;;;;;;;;;5080517;28;20059;-69
2021/04/08 09:44:25;;;;;;;0.10;0.10;;;;;;;;;;5003495;28;20041;-67
2021/04/08 09:46:53;;;;;;;0.10;0.10;;;;;;;;;;5004406;28;20124;-70
2021/04/08 09:49:40;;;;;;;0.10;0.10;;;;;;;;;;5001800;28;20030;-70
2021/04/08 09:52:06;;;;;;;0.00;0.00;;;;;;;;;;4991563;28;20065;-69
2021/04/08 09:54:58;;;;;;;0.30;0.30;;;;;;;;;;4990668;28;20491;-67
2021/04/08 09:57:33;;;;;;;0.10;0.10;;;;;;;;;;5001688;28;20038;-69
2021/04/08 10:00:00;;;;;;;0.10;0.10;;;;;;;;;;5006144;28;20221;-69
2021/04/08 10:02:27;;;;;;;0.22;0.22;;;;;;;;;;5002096;28;20072;-69
2021/04/08 10:05:04;;;;;;;5.50;0.40;;;;;;;;;;4993991;28;20041;-68
2021/04/08 10:07:30;;;;;;;0.20;0.20;;;;;;;;;;5004934;28;20045;-69
2021/04/08 10:09:56;;;;;;;0.10;0.10;;;;;;;;;;5004428;28;20501;-70
2021/04/08 10:12:29;;;;;;;0.10;0.10;;;;;;;;;;4998143;28;20034;-68
2021/04/08 10:14:56;;;;;;;0.73;0.73;;;;;;;;;;5007073;28;20597;-69
2021/04/08 10:17:33;;;;;;;0.10;0.10;;;;;;;;;;5006054;28;20076;-69
2021/04/08 10:19:59;;;;;;;0.10;0.10;;;;;;;;;;5050117;28;20481;-69
2021/04/08 10:22:25;;;;;;;2.30;0.60;;;;;;;;;;5089442;28;20370;-69
2021/04/08 10:24:51;;;;;;;6.80;1.52;;;;;;;;;;5092346;28;20118;-67
2021/04/08 10:27:25;;;;;;;0.10;0.10;;;;;;;;;;5090378;28;20028;-69
2021/04/08 10:29:52;;;;;;;0.10;0.10;;;;;;;;;;5088842;28;20320;-69
2021/04/08 10:32:32;;;;;;;0.20;0.20;;;;;;;;;;5089537;28;20017;-69
2021/04/08 10:34:59;;;;;;;0.63;0.40;;;;;;;;;;5089389;28;20149;-69
2021/04/08 10:37:25;;;;;;;0.10;0.10;;;;;;;;;;5089611;28;20023;-69
2021/04/08 10:39:51;;;;;;;0.10;0.10;;;;;;;;;;5092653;28;20170;-68
2021/04/08 10:42:17;;;;;;;0.30;0.30;;;;;;;;;;5090850;28;20142;-69
2021/04/08 10:44:46;;;;;;;0.10;0.10;;;;;;;;;;5089215;28;20493;-70
2021/04/08 10:47:27;;;;;;;0.10;0.10;;;;;;;;;;5088255;28;20016;-70
2021/04/08 10:49:57;;;;;;;0.13;0.13;;;;;;;;;;5089188;28;20024;-70
2021/04/08 10:52:23;;;;;;;0.13;0.13;;;;;;;;;;5077014;28;20043;-70
2021/04/08 10:54:51;;;;;;;0.65;0.60;;;;;;;;;;5077762;28;20023;-70
2021/04/08 10:57:17;;;;;;;1.65;0.45;;;;;;;;;;5083805;28;20059;-69
2021/04/08 10:59:45;;;;;;;0.65;0.65;;;;;;;;;;5087049;28;20024;-70
2021/04/08 11:02:20;;;;;;;0.70;0.68;;;;;;;;;;5085572;28;20112;-68
2021/04/08 11:04:47;;;;;;;0.82;0.25;;;;;;;;;;5086082;28;20035;-70
2021/04/08 11:07:13;;;;;;;0.20;0.20;;;;;;;;;;5086274;28;20052;-69
2021/04/08 11:09:39;;;;;;;0.10;0.10;;;;;;;;;;5086069;28;20038;-69
2021/04/08 11:12:16;;;;;;;0.38;0.38;;;;;;;;;;5085742;28;20016;-69
2021/04/08 11:14:46;;;;;;;0.10;0.10;;;;;;;;;;5089431;28;20040;-70
2021/04/08 11:17:13;;;;;;;0.10;0.10;;;;;;;;;;5087053;28;20036;-69
2021/04/08 11:19:39;;;;;;;0.10;0.10;;;;;;;;;;5085017;28;20033;-68
2021/04/08 11:22:05;;;;;;;0.98;0.45;;;;;;;;;;5087760;28;20031;-68
2021/04/08 11:24:32;;;;;;;0.00;0.00;;;;;;;;;;5088994;28;20054;-69
2021/04/08 11:26:58;;;;;;;0.10;0.10;;;;;;;;;;5087072;28;20065;-69
2021/04/08 11:29:26;;;;;;;0.10;0.10;;;;;;;;;;5082621;28;20034;-70
2021/04/08 11:32:01;;;;;;;0.10;0.10;;;;;;;;;;5082633;28;20028;-68
2021/04/08 11:34:27;;;;;;;0.10;0.10;;;;;;;;;;5086154;28;20457;-61
2021/04/08 11:36:54;;;;;;;0.10;0.10;;;;;;;;;;5091161;28;20482;-61
2021/04/08 11:39:20;;;;;;;0.00;0.00;;;;;;;;;;5082687;28;20116;-61
2021/04/08 11:41:46;;;;;;;0.30;0.30;;;;;;;;;;5081927;28;20066;-61
2021/04/08 11:44:23;;;;;;;0.10;0.10;;;;;;;;;;5081866;28;20501;-61
2021/04/08 11:46:50;;;;;;;0.20;0.20;;;;;;;;;;5076272;28;20213;-61
2021/04/08 11:49:17;;;;;;;0.10;0.10;;;;;;;;;;5082432;28;20029;-61
2021/04/08 11:51:43;;;;;;;2.28;0.60;;;;;;;;;;5081765;28;20020;-61
2021/04/08 11:54:10;;;;;;;0.20;0.15;;;;;;;;;;5083455;28;20028;-61
2021/04/08 11:56:37;;;;;;;0.00;0.00;;;;;;;;;;5085252;28;20024;-61
2021/04/08 11:59:06;;;;;;;0.82;0.35;;;;;;;;;;5080387;28;20111;-61
2021/04/08 12:01:33;;;;;;;0.10;0.10;;;;;;;;;;5084940;28;20702;-61
2021/04/08 12:04:08;;;;;;;1.55;0.65;;;;;;;;;;5087605;28;20405;-61
2021/04/08 12:06:39;;;;;;;0.17;0.17;;;;;;;;;;5093719;28;20551;-61
2021/04/08 12:09:06;;;;;;;0.30;0.30;;;;;;;;;;5085593;28;20028;-61
2021/04/08 12:11:46;;;;;;;0.93;0.63;;;;;;;;;;5081215;28;20074;-61
2021/04/08 12:14:12;;;;;;;0.00;0.00;;;;;;;;;;5081833;28;20041;-61
2021/04/08 12:16:38;;;;;;;0.10;0.10;;;;;;;;;;5077639;28;20021;-61
2021/04/08 12:19:04;;;;;;;1.83;0.95;;;;;;;;;;5082229;28;20052;-61
2021/04/08 12:21:30;;;;;;;0.28;0.28;;;;;;;;;;5080174;28;20111;-61
2021/04/08 12:23:56;;;;;;;0.20;0.20;;;;;;;;;;5083029;28;20063;-61
2021/04/08 12:26:32;;;;;;;3.30;1.45;;;;;;;;;;5081593;28;20141;-61
2021/04/08 12:28:59;;;;;;;0.30;0.30;;;;;;;;;;5080589;28;20554;-61
2021/04/08 12:31:25;;;;;;;0.68;0.68;;;;;;;;;;5085970;28;20107;-61
2021/04/08 12:33:51;;;;;;;1.42;0.77;;;;;;;;;;5087520;28;20058;-61
2021/04/08 12:36:17;;;;;;;0.20;0.20;;;;;;;;;;5088613;28;20096;-61
2021/04/08 12:38:43;;;;;;;1.10;0.73;;;;;;;;;;5082307;28;20418;-61
2021/04/08 12:41:09;;;;;;;2.00;1.08;;;;;;;;;;5084900;28;20028;-61
2021/04/08 12:43:36;;;;;;;0.40;0.40;;;;;;;;;;5082205;28;20417;-61
2021/04/08 12:46:03;;;;;;;0.10;0.10;;;;;;;;;;5083271;28;20428;-61
2021/04/08 12:48:29;;;;;;;0.17;0.17;;;;;;;;;;5088702;28;20032;-61
2021/04/08 12:50:57;;;;;;;0.20;0.20;;;;;;;;;;5082141;28;20020;-61
2021/04/08 12:53:24;;;;;;;1.80;0.60;;;;;;;;;;5084801;28;20031;-61
2021/04/08 12:55:51;;;;;;;0.30;0.30;;;;;;;;;;5082750;28;20024;-61
2021/04/08 12:58:17;;;;;;;0.82;0.82;;;;;;;;;;5076845;28;20036;-60
2021/04/08 13:00:43;;;;;;;0.10;0.10;;;;;;;;;;5082976;28;20074;-60
2021/04/08 13:03:10;;;;;;;1.55;1.30;;;;;;;;;;5079533;28;20120;-60
2021/04/08 13:05:39;;;;;;;1.02;0.80;;;;;;;;;;5082763;28;20402;-60
2021/04/08 13:08:06;;;;;;;2.38;0.80;;;;;;;;;;5080150;28;20098;-62
2021/04/08 13:10:32;;;;;;;0.35;0.25;;;;;;;;;;5081686;28;20063;-60
2021/04/08 13:12:59;;;;;;;0.90;0.90;;;;;;;;;;5084200;28;20570;-60
2021/04/08 13:15:25;;;;;;;0.20;0.20;;;;;;;;;;5086794;28;20417;-60
2021/04/08 13:17:51;;;;;;;0.90;0.60;;;;;;;;;;5086816;28;20108;-60
2021/04/08 13:20:19;;;;;;;0.63;0.47;;;;;;;;;;5087681;28;20024;-60
2021/04/08 13:22:45;;;;;;;0.10;0.10;;;;;;;;;;5085670;28;20035;-60
2021/04/08 13:25:11;;;;;;;0.20;0.20;;;;;;;;;;5084709;28;20063;-61
2021/04/08 13:27:37;;;;;;;0.10;0.10;;;;;;;;;;5083631;28;20020;-61
2021/04/08 13:30:04;;;;;;;1.30;0.90;;;;;;;;;;5087437;28;20059;-60
2021/04/08 13:32:31;;;;;;;0.45;0.45;;;;;;;;;;5087388;28;20038;-60
2021/04/08 13:34:57;;;;;;;1.33;0.77;;;;;;;;;;5082941;28;20058;-60
2021/04/08 13:37:23;;;;;;;0.60;0.60;;;;;;;;;;5082418;28;20493;-60
2021/04/08 13:39:49;;;;;;;0.10;0.10;;;;;;;;;;5093617;28;20024;-60
2021/04/08 13:42:15;;;;;;;0.35;0.35;;;;;;;;;;5086945;28;20039;-60
2021/04/08 13:44:41;;;;;;;0.38;0.38;;;;;;;;;;5087648;28;20043;-61
2021/04/08 13:47:07;;;;;;;1.10;0.88;;;;;;;;;;5083567;28;20028;-60
2021/04/08 13:49:33;;;;;;;1.33;0.88;;;;;;;;;;5088330;28;20091;-60
2021/04/08 13:52:00;;;;;;;1.23;0.43;;;;;;;;;;5085807;28;20074;-60
2021/04/08 13:54:26;;;;;;;0.40;0.40;;;;;;;;;;5092471;28;20046;-60
2021/04/08 13:56:53;;;;;;;0.28;0.28;;;;;;;;;;5086029;28;20056;-60
2021/04/08 13:59:19;;;;;;;0.13;0.13;;;;;;;;;;5087360;28;20020;-60
2021/04/08 14:01:45;;;;;;;0.65;0.65;;;;;;;;;;5082772;28;20439;-60
2021/04/08 14:04:11;;;;;;;2.25;0.73;;;;;;;;;;5084472;28;20135;-61
2021/04/08 14:06:37;;;;;;;0.40;0.40;;;;;;;;;;5092742;28;20049;-61
2021/04/08 14:09:05;;;;;;;2.63;1.23;;;;;;;;;;5087714;28;20029;-59
2021/04/08 14:11:31;;;;;;;4.07;1.25;;;;;;;;;;5086165;28;20393;-62
2021/04/08 14:13:58;;;;;;;4.78;1.40;;;;;;;;;;5084755;28;20056;-60
2021/04/08 14:16:24;;;;;;;1.42;1.05;;;;;;;;;;5088236;28;20040;-60
2021/04/08 14:18:50;;;;;;;0.93;0.85;;;;;;;;;;5091334;28;20780;-62
2021/04/08 14:21:17;;;;;;;0.40;0.40;;;;;;;;;;5090258;28;20043;-61
2021/04/08 14:23:43;;;;;;;1.08;0.70;;;;;;;;;;5091895;28;20043;-61
2021/04/08 14:26:09;;;;;;;0.20;0.20;;;;;;;;;;5091422;28;20051;-62
2021/04/08 14:28:35;;;;;;;0.25;0.25;;;;;;;;;;5090372;28;20036;-61
2021/04/08 14:31:01;;;;;;;0.75;0.55;;;;;;;;;;5091224;28;20023;-60
2021/04/08 14:33:27;;;;;;;1.55;1.13;;;;;;;;;;5093775;28;20077;-63
2021/04/08 14:35:54;;;;;;;0.30;0.20;;;;;;;;;;5090972;28;20028;-59
2021/04/08 14:38:20;;;;;;;0.20;0.20;;;;;;;;;;5092658;28;20027;-62
2021/04/08 14:40:46;;;;;;;1.58;0.52;;;;;;;;;;5098174;28;20038;-60
2021/04/08 14:43:13;;;;;;;2.10;1.30;;;;;;;;;;5088797;28;20047;-61
2021/04/08 14:45:39;;;;;;;3.55;1.65;;;;;;;;;;5093774;28;20032;-61
2021/04/08 14:48:05;;;;;;;1.67;0.85;;;;;;;;;;5087335;28;20497;-61
2021/04/08 14:50:32;;;;;;;4.88;1.25;;;;;;;;;;5092853;28;20035;-61
2021/04/08 14:52:58;;;;;;;2.00;0.43;;;;;;;;;;5087953;28;20515;-61
2021/04/08 14:55:24;;;;;;;0.98;0.73;;;;;;;;;;5089002;28;20427;-61
2021/04/08 14:57:51;;;;;;;1.20;0.75;;;;;;;;;;5085778;28;20071;-61
2021/04/08 15:00:18;;;;;;;2.10;1.48;;;;;;;;;;5083085;28;20024;-61